sensor_id;sensor_type;location;lat;lon;timestamp;P1;durP1;ratioP1;P2;durP2;ratioP2
18711;SDS011;9485;49.386;8.674;2022-12-18T00:02:58;47.53;;;21.00;;
18711;SDS011;9485;49.386;8.674;2022-12-18T00:08:20;43.40;;;19.57;;
18711;SDS011;9485;49.386;8.674;2022-12-18T00:13:42;42.37;;;19.63;;
18711;SDS011;9485;49.386;8.674;2022-12-18T00:19:03;41.50;;;20.37;;
18711;SDS011;9485;49.386;8.674;2022-12-18T00:24:26;40.57;;;19.80;;
18711;SDS011;9485;49.386;8.674;2022-12-18T00:29:48;44.37;;;21.37;;
18711;SDS011;9485;49.386;8.674;2022-12-18T00:35:09;38.57;;;18.97;;
18711;SDS011;9485;49.386;8.674;2022-12-18T00:40:30;46.50;;;20.27;;
18711;SDS011;9485;49.386;8.674;2022-12-18T00:45:52;35.93;;;18.03;;
18711;SDS011;9485;49.386;8.674;2022-12-18T00:51:12;39.30;;;20.13;;
18711;SDS011;9485;49.386;8.674;2022-12-18T00:56:34;48.47;;;21.80;;
18711;SDS011;9485;49.386;8.674;2022-12-18T01:01:58;40.60;;;20.80;;
18711;SDS011;9485;49.386;8.674;2022-12-18T01:07:19;36.43;;;19.93;;
18711;SDS011;9485;49.386;8.674;2022-12-18T01:12:39;40.70;;;19.80;;
18711;SDS011;9485;49.386;8.674;2022-12-18T01:18:02;41.17;;;20.33;;
18711;SDS011;9485;49.386;8.674;2022-12-18T01:23:25;39.17;;;19.43;;
18711;SDS011;9485;49.386;8.674;2022-12-18T01:28:46;38.57;;;19.50;;
18711;SDS011;9485;49.386;8.674;2022-12-18T01:34:08;38.63;;;17.93;;
18711;SDS011;9485;49.386;8.674;2022-12-18T01:39:29;31.63;;;17.30;;
18711;SDS011;9485;49.386;8.674;2022-12-18T01:44:58;36.27;;;18.23;;
18711;SDS011;9485;49.386;8.674;2022-12-18T01:50:28;35.17;;;16.60;;
18711;SDS011;9485;49.386;8.674;2022-12-18T01:55:54;34.93;;;16.60;;
18711;SDS011;9485;49.386;8.674;2022-12-18T02:01:17;38.87;;;18.57;;
18711;SDS011;9485;49.386;8.674;2022-12-18T02:06:41;38.27;;;17.93;;
18711;SDS011;9485;49.386;8.674;2022-12-18T02:12:05;39.43;;;18.83;;
18711;SDS011;9485;49.386;8.674;2022-12-18T02:17:39;38.47;;;17.80;;
18711;SDS011;9485;49.386;8.674;2022-12-18T02:23:12;39.43;;;19.10;;
18711;SDS011;9485;49.386;8.674;2022-12-18T02:28:55;40.30;;;18.30;;
18711;SDS011;9485;49.386;8.674;2022-12-18T02:34:24;37.67;;;18.13;;
18711;SDS011;9485;49.386;8.674;2022-12-18T02:39:51;35.30;;;17.10;;
18711;SDS011;9485;49.386;8.674;2022-12-18T02:45:18;37.20;;;17.30;;
18711;SDS011;9485;49.386;8.674;2022-12-18T02:50:41;34.97;;;16.07;;
18711;SDS011;9485;49.386;8.674;2022-12-18T02:56:15;31.10;;;16.40;;
18711;SDS011;9485;49.386;8.674;2022-12-18T03:01:48;36.37;;;16.90;;
18711;SDS011;9485;49.386;8.674;2022-12-18T03:07:18;42.30;;;17.33;;
18711;SDS011;9485;49.386;8.674;2022-12-18T03:12:50;35.40;;;18.17;;
18711;SDS011;9485;49.386;8.674;2022-12-18T03:18:20;42.63;;;17.30;;
18711;SDS011;9485;49.386;8.674;2022-12-18T03:23:48;37.87;;;18.47;;
18711;SDS011;9485;49.386;8.674;2022-12-18T03:29:12;41.63;;;19.00;;
18711;SDS011;9485;49.386;8.674;2022-12-18T04:31:33;34.63;;;15.87;;
18711;SDS011;9485;49.386;8.674;2022-12-18T04:36:55;38.60;;;18.37;;
18711;SDS011;9485;49.386;8.674;2022-12-18T04:42:16;37.93;;;17.33;;
18711;SDS011;9485;49.386;8.674;2022-12-18T04:47:38;39.13;;;19.00;;
18711;SDS011;9485;49.386;8.674;2022-12-18T04:52:58;39.77;;;17.50;;
18711;SDS011;9485;49.386;8.674;2022-12-18T04:58:19;36.83;;;16.77;;
18711;SDS011;9485;49.386;8.674;2022-12-18T05:03:41;43.23;;;17.40;;
18711;SDS011;9485;49.386;8.674;2022-12-18T05:09:02;41.23;;;18.93;;
18711;SDS011;9485;49.386;8.674;2022-12-18T05:14:23;48.33;;;20.47;;
18711;SDS011;9485;49.386;8.674;2022-12-18T05:19:45;35.87;;;18.30;;
18711;SDS011;9485;49.386;8.674;2022-12-18T05:25:05;37.77;;;18.00;;
18711;SDS011;9485;49.386;8.674;2022-12-18T05:30:27;42.43;;;18.77;;
18711;SDS011;9485;49.386;8.674;2022-12-18T05:35:51;37.77;;;18.63;;
18711;SDS011;9485;49.386;8.674;2022-12-18T05:41:12;37.83;;;16.53;;
18711;SDS011;9485;49.386;8.674;2022-12-18T05:46:33;40.17;;;18.30;;
18711;SDS011;9485;49.386;8.674;2022-12-18T05:51:55;42.60;;;18.97;;
18711;SDS011;9485;49.386;8.674;2022-12-18T05:57:15;36.20;;;17.00;;
18711;SDS011;9485;49.386;8.674;2022-12-18T06:02:36;36.27;;;17.03;;
18711;SDS011;9485;49.386;8.674;2022-12-18T06:07:58;45.60;;;20.33;;
18711;SDS011;9485;49.386;8.674;2022-12-18T06:13:19;39.70;;;18.50;;
18711;SDS011;9485;49.386;8.674;2022-12-18T06:18:39;43.63;;;18.33;;
18711;SDS011;9485;49.386;8.674;2022-12-18T06:24:02;43.50;;;19.53;;
18711;SDS011;9485;49.386;8.674;2022-12-18T06:29:22;40.53;;;17.80;;
18711;SDS011;9485;49.386;8.674;2022-12-18T06:34:43;35.57;;;16.63;;
18711;SDS011;9485;49.386;8.674;2022-12-18T06:40:06;36.60;;;16.37;;
18711;SDS011;9485;49.386;8.674;2022-12-18T06:45:27;33.07;;;15.13;;
18711;SDS011;9485;49.386;8.674;2022-12-18T06:50:48;41.27;;;17.63;;
18711;SDS011;9485;49.386;8.674;2022-12-18T06:56:10;37.77;;;17.40;;
18711;SDS011;9485;49.386;8.674;2022-12-18T07:01:31;32.77;;;15.87;;
18711;SDS011;9485;49.386;8.674;2022-12-18T07:06:51;39.33;;;17.53;;
18711;SDS011;9485;49.386;8.674;2022-12-18T07:12:14;38.57;;;17.73;;
18711;SDS011;9485;49.386;8.674;2022-12-18T07:17:34;41.40;;;18.97;;
18711;SDS011;9485;49.386;8.674;2022-12-18T07:22:55;45.30;;;19.90;;
18711;SDS011;9485;49.386;8.674;2022-12-18T07:28:17;44.00;;;21.27;;
18711;SDS011;9485;49.386;8.674;2022-12-18T07:33:39;40.07;;;17.40;;
18711;SDS011;9485;49.386;8.674;2022-12-18T07:39:00;40.07;;;18.63;;
18711;SDS011;9485;49.386;8.674;2022-12-18T08:41:24;33.97;;;17.03;;
18711;SDS011;9485;49.386;8.674;2022-12-18T08:46:44;31.27;;;15.10;;
18711;SDS011;9485;49.386;8.674;2022-12-18T08:52:06;35.37;;;17.27;;
18711;SDS011;9485;49.386;8.674;2022-12-18T08:57:28;32.27;;;16.50;;
18711;SDS011;9485;49.386;8.674;2022-12-18T09:02:49;32.17;;;16.80;;
18711;SDS011;9485;49.386;8.674;2022-12-18T09:08:10;29.77;;;16.20;;
18711;SDS011;9485;49.386;8.674;2022-12-18T09:13:32;30.30;;;17.20;;
18711;SDS011;9485;49.386;8.674;2022-12-18T09:18:54;33.70;;;17.27;;
18711;SDS011;9485;49.386;8.674;2022-12-18T09:24:18;29.20;;;15.00;;
18711;SDS011;9485;49.386;8.674;2022-12-18T09:29:40;30.47;;;15.83;;
18711;SDS011;9485;49.386;8.674;2022-12-18T09:35:02;30.30;;;16.47;;
18711;SDS011;9485;49.386;8.674;2022-12-18T09:40:23;32.10;;;17.10;;
18711;SDS011;9485;49.386;8.674;2022-12-18T09:45:51;27.23;;;14.33;;
18711;SDS011;9485;49.386;8.674;2022-12-18T09:51:19;27.07;;;14.77;;
18711;SDS011;9485;49.386;8.674;2022-12-18T09:56:46;28.47;;;15.87;;
18711;SDS011;9485;49.386;8.674;2022-12-18T10:02:15;28.27;;;15.43;;
18711;SDS011;9485;49.386;8.674;2022-12-18T10:07:42;30.27;;;14.27;;
18711;SDS011;9485;49.386;8.674;2022-12-18T10:13:18;26.10;;;14.90;;
18711;SDS011;9485;49.386;8.674;2022-12-18T10:18:56;24.97;;;13.80;;
18711;SDS011;9485;49.386;8.674;2022-12-18T10:24:32;27.10;;;15.00;;
18711;SDS011;9485;49.386;8.674;2022-12-18T10:30:04;27.03;;;15.33;;
18711;SDS011;9485;49.386;8.674;2022-12-18T10:35:35;28.63;;;14.20;;
18711;SDS011;9485;49.386;8.674;2022-12-18T10:40:57;28.70;;;15.37;;
18711;SDS011;9485;49.386;8.674;2022-12-18T10:46:20;30.47;;;15.83;;
18711;SDS011;9485;49.386;8.674;2022-12-18T10:51:42;29.73;;;15.90;;
18711;SDS011;9485;49.386;8.674;2022-12-18T11:02:56;32.07;;;16.23;;
18711;SDS011;9485;49.386;8.674;2022-12-18T11:08:20;26.23;;;15.13;;
18711;SDS011;9485;49.386;8.674;2022-12-18T11:13:42;30.90;;;15.23;;
18711;SDS011;9485;49.386;8.674;2022-12-18T11:19:26;29.97;;;16.00;;
18711;SDS011;9485;49.386;8.674;2022-12-18T11:24:55;28.73;;;14.37;;
18711;SDS011;9485;49.386;8.674;2022-12-18T11:30:23;31.47;;;16.07;;
18711;SDS011;9485;49.386;8.674;2022-12-18T11:35:49;30.40;;;15.77;;
18711;SDS011;9485;49.386;8.674;2022-12-18T11:41:20;30.97;;;16.27;;
18711;SDS011;9485;49.386;8.674;2022-12-18T11:47:09;28.77;;;15.80;;
18711;SDS011;9485;49.386;8.674;2022-12-18T11:52:41;29.53;;;15.43;;
18711;SDS011;9485;49.386;8.674;2022-12-18T11:58:05;29.00;;;14.60;;
18711;SDS011;9485;49.386;8.674;2022-12-18T12:03:39;32.00;;;16.17;;
18711;SDS011;9485;49.386;8.674;2022-12-18T12:09:25;32.40;;;16.10;;
18711;SDS011;9485;49.386;8.674;2022-12-18T12:15:00;32.63;;;16.10;;
18711;SDS011;9485;49.386;8.674;2022-12-18T12:20:35;32.27;;;17.47;;
18711;SDS011;9485;49.386;8.674;2022-12-18T12:26:10;28.33;;;14.40;;
18711;SDS011;9485;49.386;8.674;2022-12-18T12:31:42;31.87;;;16.73;;
18711;SDS011;9485;49.386;8.674;2022-12-18T12:37:23;31.07;;;16.30;;
18711;SDS011;9485;49.386;8.674;2022-12-18T12:42:58;30.67;;;16.03;;
18711;SDS011;9485;49.386;8.674;2022-12-18T12:48:35;30.73;;;16.10;;
18711;SDS011;9485;49.386;8.674;2022-12-18T12:54:04;33.33;;;16.23;;
18711;SDS011;9485;49.386;8.674;2022-12-18T12:59:37;28.00;;;15.33;;
18711;SDS011;9485;49.386;8.674;2022-12-18T13:05:12;30.77;;;16.43;;
18711;SDS011;9485;49.386;8.674;2022-12-18T13:10:42;31.43;;;16.10;;
18711;SDS011;9485;49.386;8.674;2022-12-18T13:16:04;26.63;;;14.40;;
18711;SDS011;9485;49.386;8.674;2022-12-18T13:21:31;27.10;;;14.30;;
18711;SDS011;9485;49.386;8.674;2022-12-18T13:26:54;27.53;;;15.33;;
18711;SDS011;9485;49.386;8.674;2022-12-18T13:32:18;27.70;;;14.83;;
18711;SDS011;9485;49.386;8.674;2022-12-18T13:37:43;29.13;;;14.93;;
18711;SDS011;9485;49.386;8.674;2022-12-18T13:43:20;25.60;;;13.90;;
18711;SDS011;9485;49.386;8.674;2022-12-18T13:48:51;27.27;;;14.17;;
18711;SDS011;9485;49.386;8.674;2022-12-18T13:54:22;24.30;;;13.43;;
18711;SDS011;9485;49.386;8.674;2022-12-18T13:59:50;28.73;;;14.77;;
18711;SDS011;9485;49.386;8.674;2022-12-18T14:05:21;27.50;;;14.10;;
18711;SDS011;9485;49.386;8.674;2022-12-18T14:10:44;30.43;;;14.27;;
18711;SDS011;9485;49.386;8.674;2022-12-18T14:16:11;27.33;;;14.37;;
18711;SDS011;9485;49.386;8.674;2022-12-18T14:21:35;29.33;;;15.43;;
18711;SDS011;9485;49.386;8.674;2022-12-18T14:27:02;29.97;;;17.10;;
18711;SDS011;9485;49.386;8.674;2022-12-18T14:32:40;27.53;;;15.67;;
18711;SDS011;9485;49.386;8.674;2022-12-18T14:38:11;29.83;;;14.80;;
18711;SDS011;9485;49.386;8.674;2022-12-18T14:43:43;28.40;;;14.40;;
18711;SDS011;9485;49.386;8.674;2022-12-18T14:49:17;25.70;;;12.73;;
18711;SDS011;9485;49.386;8.674;2022-12-18T15:00:17;25.77;;;14.53;;
18711;SDS011;9485;49.386;8.674;2022-12-18T15:05:41;24.60;;;13.53;;
18711;SDS011;9485;49.386;8.674;2022-12-18T15:13:09;23.30;;;13.27;;
18711;SDS011;9485;49.386;8.674;2022-12-18T15:18:43;26.90;;;14.77;;
18711;SDS011;9485;49.386;8.674;2022-12-18T15:24:13;25.03;;;13.33;;
18711;SDS011;9485;49.386;8.674;2022-12-18T15:29:41;28.97;;;13.27;;
18711;SDS011;9485;49.386;8.674;2022-12-18T15:35:09;29.70;;;15.57;;
18711;SDS011;9485;49.386;8.674;2022-12-18T15:40:36;27.20;;;13.90;;
18711;SDS011;9485;49.386;8.674;2022-12-18T15:45:57;30.57;;;15.73;;
18711;SDS011;9485;49.386;8.674;2022-12-18T15:51:20;31.47;;;16.40;;
18711;SDS011;9485;49.386;8.674;2022-12-18T15:56:46;38.73;;;18.47;;
18711;SDS011;9485;49.386;8.674;2022-12-18T16:02:25;32.43;;;17.60;;
18711;SDS011;9485;49.386;8.674;2022-12-18T16:07:47;32.70;;;18.67;;
18711;SDS011;9485;49.386;8.674;2022-12-18T16:13:09;30.00;;;16.27;;
18711;SDS011;9485;49.386;8.674;2022-12-18T16:18:33;38.30;;;18.60;;
18711;SDS011;9485;49.386;8.674;2022-12-18T16:23:54;29.63;;;16.07;;
18711;SDS011;9485;49.386;8.674;2022-12-18T16:29:15;33.77;;;18.33;;
18711;SDS011;9485;49.386;8.674;2022-12-18T16:34:37;32.00;;;17.67;;
18711;SDS011;9485;49.386;8.674;2022-12-18T16:39:58;31.53;;;16.40;;
18711;SDS011;9485;49.386;8.674;2022-12-18T16:45:21;30.10;;;17.73;;
18711;SDS011;9485;49.386;8.674;2022-12-18T16:50:43;42.67;;;22.33;;
18711;SDS011;9485;49.386;8.674;2022-12-18T16:56:03;43.93;;;23.47;;
18711;SDS011;9485;49.386;8.674;2022-12-18T17:01:25;31.57;;;17.40;;
18711;SDS011;9485;49.386;8.674;2022-12-18T17:06:49;26.87;;;15.23;;
18711;SDS011;9485;49.386;8.674;2022-12-18T17:12:11;24.57;;;13.73;;
18711;SDS011;9485;49.386;8.674;2022-12-18T17:17:32;36.47;;;19.63;;
18711;SDS011;9485;49.386;8.674;2022-12-18T17:22:55;34.57;;;19.87;;
18711;SDS011;9485;49.386;8.674;2022-12-18T17:28:17;33.07;;;18.47;;
18711;SDS011;9485;49.386;8.674;2022-12-18T17:33:39;32.67;;;17.53;;
18711;SDS011;9485;49.386;8.674;2022-12-18T17:46:05;33.63;;;15.73;;
18711;SDS011;9485;49.386;8.674;2022-12-18T17:51:26;24.43;;;12.93;;
18711;SDS011;9485;49.386;8.674;2022-12-18T17:56:48;23.63;;;14.47;;
18711;SDS011;9485;49.386;8.674;2022-12-18T18:02:10;30.73;;;14.57;;
18711;SDS011;9485;49.386;8.674;2022-12-18T18:07:31;28.87;;;15.43;;
18711;SDS011;9485;49.386;8.674;2022-12-18T18:16:10;24.73;;;13.83;;
18711;SDS011;9485;49.386;8.674;2022-12-18T18:21:34;26.63;;;13.13;;
18711;SDS011;9485;49.386;8.674;2022-12-18T18:26:58;24.67;;;13.43;;
18711;SDS011;9485;49.386;8.674;2022-12-18T18:32:20;25.63;;;13.77;;
18711;SDS011;9485;49.386;8.674;2022-12-18T18:37:41;29.03;;;14.83;;
18711;SDS011;9485;49.386;8.674;2022-12-18T18:43:02;28.20;;;14.90;;
18711;SDS011;9485;49.386;8.674;2022-12-18T18:48:24;29.23;;;15.80;;
18711;SDS011;9485;49.386;8.674;2022-12-18T18:53:48;27.73;;;14.93;;
18711;SDS011;9485;49.386;8.674;2022-12-18T18:59:10;33.90;;;17.90;;
18711;SDS011;9485;49.386;8.674;2022-12-18T19:04:32;30.00;;;16.10;;
18711;SDS011;9485;49.386;8.674;2022-12-18T19:09:54;28.73;;;16.80;;
18711;SDS011;9485;49.386;8.674;2022-12-18T19:15:15;27.07;;;15.40;;
18711;SDS011;9485;49.386;8.674;2022-12-18T19:20:37;24.27;;;13.13;;
18711;SDS011;9485;49.386;8.674;2022-12-18T19:25:58;30.20;;;16.07;;
18711;SDS011;9485;49.386;8.674;2022-12-18T19:31:19;31.87;;;17.23;;
18711;SDS011;9485;49.386;8.674;2022-12-18T19:36:42;32.37;;;18.17;;
18711;SDS011;9485;49.386;8.674;2022-12-18T19:42:03;30.63;;;17.27;;
18711;SDS011;9485;49.386;8.674;2022-12-18T19:47:23;32.07;;;19.83;;
18711;SDS011;9485;49.386;8.674;2022-12-18T19:52:45;34.13;;;19.50;;
18711;SDS011;9485;49.386;8.674;2022-12-18T19:58:06;37.63;;;19.83;;
18711;SDS011;9485;49.386;8.674;2022-12-18T20:03:27;33.17;;;18.83;;
18711;SDS011;9485;49.386;8.674;2022-12-18T20:08:50;34.77;;;19.83;;
18711;SDS011;9485;49.386;8.674;2022-12-18T20:14:12;34.73;;;19.27;;
18711;SDS011;9485;49.386;8.674;2022-12-18T20:19:34;27.73;;;17.80;;
18711;SDS011;9485;49.386;8.674;2022-12-18T20:24:56;28.03;;;16.93;;
18711;SDS011;9485;49.386;8.674;2022-12-18T20:30:17;30.67;;;17.27;;
18711;SDS011;9485;49.386;8.674;2022-12-18T20:35:37;34.27;;;19.07;;
18711;SDS011;9485;49.386;8.674;2022-12-18T20:40:59;35.63;;;20.20;;
18711;SDS011;9485;49.386;8.674;2022-12-18T20:46:21;33.03;;;17.90;;
18711;SDS011;9485;49.386;8.674;2022-12-18T20:51:42;31.60;;;18.67;;
18711;SDS011;9485;49.386;8.674;2022-12-18T20:57:04;33.73;;;18.37;;
18711;SDS011;9485;49.386;8.674;2022-12-18T21:02:24;29.03;;;17.97;;
18711;SDS011;9485;49.386;8.674;2022-12-18T21:07:45;34.63;;;19.83;;
18711;SDS011;9485;49.386;8.674;2022-12-18T21:13:07;36.13;;;21.27;;
18711;SDS011;9485;49.386;8.674;2022-12-18T21:18:28;37.43;;;21.67;;
18711;SDS011;9485;49.386;8.674;2022-12-18T21:23:48;34.77;;;18.73;;
18711;SDS011;9485;49.386;8.674;2022-12-18T21:29:11;37.10;;;20.10;;
18711;SDS011;9485;49.386;8.674;2022-12-18T21:34:36;32.13;;;18.90;;
18711;SDS011;9485;49.386;8.674;2022-12-18T21:39:57;36.00;;;20.07;;
18711;SDS011;9485;49.386;8.674;2022-12-18T21:45:19;36.60;;;18.37;;
18711;SDS011;9485;49.386;8.674;2022-12-18T21:50:39;39.07;;;21.50;;
18711;SDS011;9485;49.386;8.674;2022-12-18T21:56:00;35.73;;;21.27;;
18711;SDS011;9485;49.386;8.674;2022-12-18T22:01:22;34.17;;;18.87;;
18711;SDS011;9485;49.386;8.674;2022-12-18T22:06:43;32.47;;;18.93;;
18711;SDS011;9485;49.386;8.674;2022-12-18T22:12:05;34.83;;;20.13;;
18711;SDS011;9485;49.386;8.674;2022-12-18T22:17:29;37.83;;;19.10;;
18711;SDS011;9485;49.386;8.674;2022-12-18T22:22:49;41.73;;;21.20;;
18711;SDS011;9485;49.386;8.674;2022-12-18T22:28:10;33.80;;;18.30;;
18711;SDS011;9485;49.386;8.674;2022-12-18T22:33:50;33.80;;;19.30;;
18711;SDS011;9485;49.386;8.674;2022-12-18T22:39:12;30.20;;;16.83;;
18711;SDS011;9485;49.386;8.674;2022-12-18T22:44:34;32.23;;;16.63;;
18711;SDS011;9485;49.386;8.674;2022-12-18T22:49:56;32.40;;;17.50;;
18711;SDS011;9485;49.386;8.674;2022-12-18T22:55:17;30.93;;;15.33;;
18711;SDS011;9485;49.386;8.674;2022-12-18T23:00:38;26.80;;;16.10;;
18711;SDS011;9485;49.386;8.674;2022-12-18T23:06:04;31.60;;;16.13;;
18711;SDS011;9485;49.386;8.674;2022-12-18T23:11:26;27.17;;;15.27;;
18711;SDS011;9485;49.386;8.674;2022-12-18T23:16:46;23.27;;;13.90;;
18711;SDS011;9485;49.386;8.674;2022-12-18T23:22:09;26.97;;;14.10;;
18711;SDS011;9485;49.386;8.674;2022-12-18T23:27:30;26.13;;;14.33;;
18711;SDS011;9485;49.386;8.674;2022-12-18T23:32:50;23.37;;;13.23;;
18711;SDS011;9485;49.386;8.674;2022-12-18T23:38:12;23.87;;;12.57;;
18711;SDS011;9485;49.386;8.674;2022-12-18T23:43:33;22.93;;;12.63;;
18711;SDS011;9485;49.386;8.674;2022-12-18T23:48:55;24.47;;;13.80;;
18711;SDS011;9485;49.386;8.674;2022-12-18T23:54:18;29.03;;;15.77;;
18711;SDS011;9485;49.386;8.674;2022-12-18T23:59:39;29.07;;;15.37;;
